createdAt,value
2018-11-11T00:01:32.369Z,2.70
2018-11-11T00:03:59.811Z,2.97
2018-11-11T00:06:27.295Z,2.53
2018-11-11T00:08:54.949Z,3.97
2018-11-11T00:11:22.378Z,3.83
2018-11-11T00:13:49.898Z,2.77
2018-11-11T00:16:17.381Z,5.80
2018-11-11T00:18:44.850Z,4.07
2018-11-11T00:21:12.584Z,3.63
2018-11-11T00:23:40.271Z,2.60
2018-11-11T00:26:07.720Z,2.60
2018-11-11T00:28:35.332Z,2.70
2018-11-11T00:31:02.972Z,3.90
2018-11-11T00:33:30.436Z,2.93
2018-11-11T00:35:58.177Z,3.07
2018-11-11T00:38:25.868Z,3.63
2018-11-11T00:40:53.240Z,3.67
2018-11-11T00:43:20.760Z,4.83
2018-11-11T00:45:48.354Z,2.53
2018-11-11T00:48:15.836Z,3.53
2018-11-11T00:50:43.605Z,4.77
2018-11-11T00:53:11.186Z,3.60
2018-11-11T00:55:39.843Z,3.10
2018-11-11T00:58:07.448Z,3.90
2018-11-11T01:00:35.181Z,2.70
2018-11-11T01:03:02.626Z,2.67
2018-11-11T01:05:30.337Z,4.17
2018-11-11T01:07:57.967Z,4.07
2018-11-11T01:10:25.379Z,4.30
2018-11-11T01:12:52.842Z,4.53
2018-11-11T01:15:20.569Z,3.23
2018-11-11T01:17:48.045Z,4.57
2018-11-11T01:20:16.594Z,3.50
2018-11-11T01:22:44.729Z,4.50
2018-11-11T01:25:13.377Z,3.37
2018-11-11T01:27:41.251Z,4.57
2018-11-11T01:30:09.042Z,3.27
2018-11-11T01:32:36.825Z,6.73
2018-11-11T01:35:06.093Z,4.10
2018-11-11T01:37:33.750Z,5.07
2018-11-11T01:40:01.213Z,3.83
2018-11-11T01:42:28.828Z,4.17
2018-11-11T01:44:56.345Z,3.67
2018-11-11T01:47:23.917Z,4.63
2018-11-11T01:49:51.430Z,3.53
2018-11-11T01:52:19.021Z,4.10
2018-11-11T01:54:46.539Z,3.87
2018-11-11T01:57:14.215Z,3.03
2018-11-11T01:59:41.695Z,4.00
2018-11-11T02:02:09.196Z,4.97
2018-11-11T02:04:36.817Z,5.37
2018-11-11T02:07:05.021Z,5.40
2018-11-11T02:09:32.482Z,3.43
2018-11-11T02:12:00.306Z,4.87
2018-11-11T02:14:27.876Z,3.27
2018-11-11T02:16:55.313Z,4.63
2018-11-11T02:19:22.943Z,3.70
2018-11-11T02:21:50.653Z,3.37
2018-11-11T02:24:18.251Z,3.40
2018-11-11T02:26:45.962Z,3.10
2018-11-11T02:29:13.594Z,3.47
2018-11-11T02:31:41.053Z,4.33
2018-11-11T02:34:08.703Z,4.03
2018-11-11T02:36:36.372Z,4.80
2018-11-11T02:39:05.009Z,3.47
2018-11-11T02:41:32.613Z,4.17
2018-11-11T02:44:00.271Z,3.73
2018-11-11T02:46:27.661Z,4.27
2018-11-11T02:48:55.205Z,5.10
2018-11-11T02:51:22.843Z,5.17
2018-11-11T02:53:50.306Z,4.00
2018-11-11T02:56:17.850Z,4.20
2018-11-11T02:58:45.478Z,4.37
2018-11-11T03:01:13.008Z,6.40
2018-11-11T03:03:40.452Z,4.63
2018-11-11T03:06:08.050Z,6.90
2018-11-11T03:08:35.513Z,6.80
2018-11-11T03:11:03.007Z,4.63
2018-11-11T03:13:30.616Z,3.53
2018-11-11T03:15:58.060Z,4.20
2018-11-11T03:18:25.508Z,4.87
2018-11-11T03:20:53.139Z,6.53
2018-11-11T03:23:20.649Z,2.97
2018-11-11T03:25:48.174Z,5.87
2018-11-11T03:28:15.877Z,5.03
2018-11-11T03:30:43.352Z,5.07
2018-11-11T03:33:11.017Z,4.10
2018-11-11T03:35:38.731Z,5.37
2018-11-11T03:38:06.240Z,5.47
2018-11-11T03:40:33.898Z,2.97
2018-11-11T03:43:01.547Z,4.67
2018-11-11T03:45:29.011Z,4.37
2018-11-11T03:47:56.636Z,3.47
2018-11-11T03:50:24.106Z,2.90
2018-11-11T03:52:51.523Z,4.47
2018-11-11T03:55:19.105Z,3.67
2018-11-11T03:57:46.808Z,3.63
2018-11-11T04:00:15.373Z,4.27
2018-11-11T04:02:43.074Z,4.43
2018-11-11T04:05:12.084Z,3.87
2018-11-11T04:07:39.792Z,5.30
2018-11-11T04:10:09.163Z,2.33
2018-11-11T04:12:36.922Z,3.80
2018-11-11T04:15:05.029Z,3.73
2018-11-11T04:17:32.686Z,5.43
2018-11-11T04:20:00.242Z,3.90
2018-11-11T04:22:27.685Z,3.17
2018-11-11T04:24:55.260Z,3.87
2018-11-11T04:27:22.922Z,3.33
2018-11-11T04:29:50.357Z,3.57
2018-11-11T04:32:17.939Z,4.73
2018-11-11T04:34:45.668Z,4.90
2018-11-11T04:37:13.136Z,4.47
2018-11-11T04:39:41.133Z,3.67
2018-11-11T04:42:08.838Z,3.60
2018-11-11T04:44:36.337Z,3.63
2018-11-11T04:47:03.973Z,4.40
2018-11-11T04:49:31.583Z,2.73
2018-11-11T04:51:59.046Z,3.37
2018-11-11T04:54:26.675Z,2.90
2018-11-11T04:56:54.394Z,2.17
2018-11-11T04:59:21.912Z,3.80
2018-11-11T05:01:49.491Z,2.77
2018-11-11T05:04:17.119Z,2.50
2018-11-11T05:06:44.526Z,3.57
2018-11-11T05:09:12.994Z,3.93
2018-11-11T05:11:40.887Z,3.03
2018-11-11T05:14:08.791Z,2.33
2018-11-11T05:16:36.458Z,2.93
2018-11-11T05:19:04.671Z,2.93
2018-11-11T05:21:32.117Z,3.00
2018-11-11T05:23:59.710Z,3.37
2018-11-11T05:26:27.457Z,3.77
2018-11-11T05:28:54.880Z,3.37
2018-11-11T05:31:22.458Z,3.70
2018-11-11T05:33:50.073Z,3.57
2018-11-11T05:36:17.619Z,3.87
2018-11-11T05:38:45.232Z,3.97
2018-11-11T05:41:12.896Z,3.73
2018-11-11T05:43:40.352Z,4.57
2018-11-11T05:46:08.056Z,3.23
2018-11-11T05:48:35.754Z,3.67
2018-11-11T05:51:03.282Z,3.80
2018-11-11T05:53:30.930Z,3.83
2018-11-11T05:55:58.633Z,4.43
2018-11-11T05:58:26.313Z,3.47
2018-11-11T06:00:53.775Z,6.27
2018-11-11T06:03:21.441Z,4.47
2018-11-11T06:05:48.915Z,5.60
2018-11-11T06:08:16.459Z,4.33
2018-11-11T06:10:44.181Z,4.60
2018-11-11T06:13:11.657Z,6.10
2018-11-11T06:15:39.166Z,4.50
2018-11-11T06:18:06.701Z,4.37
2018-11-11T06:20:34.145Z,6.03
2018-11-11T06:23:01.778Z,5.60
2018-11-11T06:25:29.545Z,5.53
2018-11-11T06:27:57.027Z,4.90
2018-11-11T06:30:24.524Z,5.77
2018-11-11T06:32:52.065Z,5.07
2018-11-11T06:35:19.510Z,4.97
2018-11-11T06:38:17.867Z,4.53
2018-11-11T06:40:45.360Z,6.20
2018-11-11T06:43:12.891Z,4.80
2018-11-11T06:45:40.556Z,5.33
2018-11-11T06:48:08.088Z,5.87
2018-11-11T06:50:35.513Z,3.97
2018-11-11T06:53:03.340Z,5.47
2018-11-11T06:55:30.816Z,6.37
2018-11-11T06:57:58.373Z,5.00
2018-11-11T07:00:26.248Z,6.03
2018-11-11T07:03:04.856Z,8.17
2018-11-11T07:05:32.676Z,6.53
2018-11-11T07:08:00.128Z,7.13
2018-11-11T07:10:27.651Z,5.90
2018-11-11T07:12:55.444Z,6.47
2018-11-11T07:15:22.947Z,6.53
2018-11-11T07:17:50.409Z,7.23
2018-11-11T07:20:18.146Z,6.30
2018-11-11T07:22:45.617Z,7.47
2018-11-11T07:25:13.237Z,8.10
2018-11-11T07:27:41.066Z,7.43
2018-11-11T07:30:08.642Z,6.57
2018-11-11T07:32:36.155Z,8.23
2018-11-11T07:35:04.183Z,6.87
2018-11-11T07:37:31.654Z,7.43
2018-11-11T07:39:59.124Z,6.80
2018-11-11T07:42:27.001Z,6.53
2018-11-11T07:44:54.532Z,9.83
2018-11-11T07:47:21.958Z,7.00
2018-11-11T07:49:49.616Z,7.63
2018-11-11T07:52:17.072Z,6.67
2018-11-11T07:54:44.536Z,7.70
2018-11-11T07:57:12.256Z,8.17
2018-11-11T07:59:39.721Z,7.90
2018-11-11T08:02:07.573Z,7.70
2018-11-11T08:04:35.357Z,8.07
2018-11-11T08:07:02.845Z,7.83
2018-11-11T08:09:30.403Z,10.73
2018-11-11T08:11:59.532Z,6.40
2018-11-11T08:14:27.527Z,7.20
2018-11-11T08:16:55.076Z,6.80
2018-11-11T08:19:22.699Z,7.77
2018-11-11T08:21:50.105Z,7.33
2018-11-11T08:24:17.912Z,6.60
2018-11-11T08:26:45.495Z,7.47
2018-11-11T08:29:12.954Z,6.70
2018-11-11T08:31:40.795Z,7.37
2018-11-11T08:34:08.503Z,7.13
2018-11-11T08:36:35.942Z,7.37
2018-11-11T08:39:05.083Z,8.23
2018-11-11T08:41:32.666Z,8.17
2018-11-11T08:44:00.173Z,6.67
2018-11-11T08:46:27.632Z,6.13
2018-11-11T08:48:55.410Z,6.60
2018-11-11T08:51:22.901Z,6.63
2018-11-11T08:53:50.339Z,6.07
2018-11-11T08:56:18.133Z,6.73
2018-11-11T08:58:45.587Z,8.20
2018-11-11T09:01:13.054Z,8.93
2018-11-11T09:03:40.640Z,6.87
2018-11-11T09:06:08.138Z,7.30
2018-11-11T09:08:35.663Z,7.27
2018-11-11T09:11:03.422Z,6.77
2018-11-11T09:13:30.864Z,7.30
2018-11-11T09:15:58.305Z,6.93
2018-11-11T09:18:25.830Z,6.70
2018-11-11T09:20:53.306Z,7.07
2018-11-11T09:23:20.780Z,7.00
2018-11-11T09:25:48.472Z,6.40
2018-11-11T09:28:15.934Z,4.53
2018-11-11T09:30:43.453Z,5.93
2018-11-11T09:33:11.138Z,5.37
2018-11-11T09:35:38.614Z,4.60
2018-11-11T09:38:06.043Z,5.27
2018-11-11T09:40:33.787Z,4.90
2018-11-11T09:43:01.302Z,4.27
2018-11-11T09:46:31.704Z,4.43
2018-11-11T09:48:59.182Z,4.23
2018-11-11T09:51:26.662Z,4.00
2018-11-11T09:53:54.343Z,4.23
2018-11-11T09:56:21.766Z,3.83
2018-11-11T09:58:49.379Z,4.20
2018-11-11T10:01:17.157Z,3.23
2018-11-11T10:05:53.168Z,2.80
2018-11-11T10:08:26.445Z,4.30
2018-11-11T10:10:59.200Z,5.40
2018-11-11T10:13:34.237Z,3.13
2018-11-11T10:16:08.698Z,4.10
2018-11-11T10:18:42.922Z,5.00
2018-11-11T10:21:15.902Z,4.60
2018-11-11T10:23:48.688Z,4.40
2018-11-11T10:26:24.318Z,4.10
2018-11-11T10:28:58.558Z,5.33
2018-11-11T10:31:34.732Z,4.13
2018-11-11T10:34:12.496Z,6.13
2018-11-11T10:36:43.096Z,3.40
2018-11-11T10:39:16.069Z,4.80
2018-11-11T10:41:49.103Z,6.07
2018-11-11T10:44:20.763Z,4.07
2018-11-11T10:46:53.066Z,5.20
2018-11-11T10:49:30.205Z,4.20
2018-11-11T10:51:57.779Z,4.17
2018-11-11T10:54:25.425Z,4.60
2018-11-11T10:56:53.101Z,4.40
2018-11-11T10:59:20.630Z,5.70
2018-11-11T11:01:53.778Z,5.07
2018-11-11T11:04:21.272Z,4.83
2018-11-11T11:06:54.344Z,3.90
2018-11-11T11:09:21.879Z,5.27
2018-11-11T11:11:49.389Z,5.40
2018-11-11T11:14:16.875Z,4.70
2018-11-11T11:16:44.679Z,4.90
2018-11-11T11:19:12.360Z,4.80
2018-11-11T11:21:39.908Z,4.17
2018-11-11T11:24:07.591Z,4.93
2018-11-11T11:26:35.135Z,4.87
2018-11-11T11:29:02.660Z,5.57
2018-11-11T11:31:30.391Z,4.50
2018-11-11T11:33:58.036Z,4.10
2018-11-11T11:36:25.783Z,3.40
2018-11-11T11:38:53.517Z,6.67
2018-11-11T11:41:21.241Z,4.97
2018-11-11T11:43:48.736Z,5.40
2018-11-11T11:46:16.512Z,4.77
2018-11-11T11:48:44.230Z,4.10
2018-11-11T11:51:11.695Z,5.33
2018-11-11T11:53:39.418Z,3.60
2018-11-11T11:56:07.090Z,4.80
2018-11-11T11:58:34.543Z,4.63
2018-11-11T12:01:02.064Z,4.17
2018-11-11T12:03:29.603Z,5.30
2018-11-11T12:06:04.319Z,4.27
2018-11-11T12:08:32.168Z,5.50
2018-11-11T12:10:59.596Z,4.30
2018-11-11T12:13:27.110Z,3.73
2018-11-11T12:15:57.632Z,6.07
2018-11-11T12:18:25.104Z,4.40
2018-11-11T12:20:52.667Z,6.33
2018-11-11T12:23:20.165Z,3.40
2018-11-11T12:25:47.627Z,4.17
2018-11-11T12:28:15.264Z,4.07
2018-11-11T12:30:43.126Z,3.80
2018-11-11T12:33:10.616Z,4.87
2018-11-11T12:35:38.222Z,4.60
2018-11-11T12:38:05.830Z,1.87
2018-11-11T12:40:33.365Z,3.00
2018-11-11T12:43:01.036Z,2.97
2018-11-11T12:45:28.811Z,3.33
2018-11-11T12:47:56.306Z,4.13
2018-11-11T12:50:24.435Z,3.10
2018-11-11T12:52:51.914Z,4.43
2018-11-11T12:55:19.531Z,2.73
2018-11-11T12:57:47.126Z,3.73
2018-11-11T13:00:15.197Z,3.57
2018-11-11T13:02:42.726Z,4.97
2018-11-11T13:05:10.780Z,3.73
2018-11-11T13:07:38.451Z,3.27
2018-11-11T13:10:08.630Z,3.47
2018-11-11T13:12:36.452Z,4.13
2018-11-11T13:15:04.579Z,2.97
2018-11-11T13:17:32.013Z,5.63
2018-11-11T13:19:59.671Z,4.13
2018-11-11T13:22:27.475Z,4.07
2018-11-11T13:24:54.959Z,5.50
2018-11-11T13:27:22.646Z,3.87
2018-11-11T13:29:50.199Z,2.53
2018-11-11T13:32:17.689Z,4.67
2018-11-11T13:34:45.274Z,4.00
2018-11-11T13:37:12.914Z,3.63
2018-11-11T13:39:40.450Z,4.30
2018-11-11T13:42:08.085Z,3.47
2018-11-11T13:44:35.648Z,3.80
2018-11-11T13:47:03.415Z,4.80
2018-11-11T13:49:30.946Z,3.10
2018-11-11T13:51:58.642Z,3.63
2018-11-11T13:54:26.175Z,3.93
2018-11-11T13:56:53.813Z,5.10
2018-11-11T13:59:21.513Z,4.63
2018-11-11T14:01:49.072Z,2.93
2018-11-11T14:04:16.555Z,4.50
2018-11-11T14:06:44.162Z,4.23
2018-11-11T14:09:13.099Z,3.63
2018-11-11T14:11:40.926Z,4.63
2018-11-11T14:14:08.646Z,2.87
2018-11-11T14:16:36.125Z,4.93
2018-11-11T14:19:03.907Z,5.07
2018-11-11T14:21:31.642Z,4.33
2018-11-11T14:23:59.106Z,4.17
2018-11-11T14:26:26.840Z,3.33
2018-11-11T14:28:54.307Z,4.57
2018-11-11T14:31:21.948Z,4.77
2018-11-11T14:33:49.607Z,5.03
2018-11-11T14:36:17.205Z,4.90
2018-11-11T14:38:44.705Z,4.27
2018-11-11T14:41:12.296Z,3.37
2018-11-11T14:43:39.987Z,5.23
2018-11-11T14:46:07.609Z,3.77
2018-11-11T14:48:35.362Z,4.73
2018-11-11T14:51:02.933Z,5.83
2018-11-11T14:53:30.453Z,5.20
2018-11-11T14:55:58.064Z,3.37
2018-11-11T14:58:25.810Z,6.77
2018-11-11T15:00:53.293Z,4.47
2018-11-11T15:03:20.959Z,7.17
2018-11-11T15:05:48.692Z,5.40
2018-11-11T15:08:16.177Z,6.07
2018-11-11T15:10:43.954Z,4.80
2018-11-11T15:13:12.438Z,6.20
2018-11-11T15:15:39.925Z,6.17
2018-11-11T15:18:07.878Z,5.07
2018-11-11T15:20:35.829Z,6.47
2018-11-11T15:23:03.154Z,6.50
2018-11-11T15:25:31.302Z,4.80
2018-11-11T15:27:58.741Z,4.80
2018-11-11T15:30:27.471Z,5.57
2018-11-11T15:32:55.628Z,5.70
2018-11-11T15:35:23.199Z,4.30
2018-11-11T15:37:50.682Z,3.93
2018-11-11T15:40:19.482Z,4.77
2018-11-11T15:42:47.014Z,7.47
2018-11-11T15:45:16.033Z,5.20
2018-11-11T15:47:43.629Z,4.93
2018-11-11T15:50:13.576Z,6.83
2018-11-11T15:52:42.496Z,5.13
2018-11-11T15:55:11.482Z,4.37
2018-11-11T15:57:39.030Z,5.17
2018-11-11T16:00:08.892Z,5.67
2018-11-11T16:02:36.577Z,5.70
2018-11-11T16:05:04.600Z,5.43
2018-11-11T16:07:32.069Z,5.83
2018-11-11T16:09:59.676Z,5.57
2018-11-11T16:12:27.364Z,6.30
2018-11-11T16:14:54.864Z,5.70
2018-11-11T16:17:22.519Z,4.93
2018-11-11T16:19:50.166Z,5.37
2018-11-11T16:22:17.700Z,3.57
2018-11-11T16:24:45.219Z,4.83
2018-11-11T16:27:12.750Z,4.93
2018-11-11T16:29:40.198Z,4.40
2018-11-11T16:32:07.899Z,4.40
2018-11-11T16:34:35.488Z,4.73
2018-11-11T16:37:03.030Z,4.77
2018-11-11T16:39:30.796Z,5.27
2018-11-11T16:41:58.449Z,4.07
2018-11-11T16:44:25.885Z,3.43
2018-11-11T16:46:53.725Z,5.73
2018-11-11T16:49:21.275Z,3.00
2018-11-11T16:51:48.782Z,5.03
2018-11-11T16:54:16.578Z,3.57
2018-11-11T16:56:44.100Z,5.77
2018-11-11T16:59:11.582Z,5.57
2018-11-11T17:01:39.271Z,4.17
2018-11-11T17:04:06.929Z,3.90
2018-11-11T17:06:34.408Z,4.33
2018-11-11T17:09:01.997Z,3.80
2018-11-11T17:11:29.578Z,3.33
2018-11-11T17:13:57.142Z,5.57
2018-11-11T17:16:24.748Z,4.30
2018-11-11T17:18:52.672Z,4.63
2018-11-11T17:21:20.165Z,5.03
2018-11-11T17:23:47.758Z,2.80
2018-11-11T17:26:15.351Z,3.57
2018-11-11T17:28:42.905Z,4.60
2018-11-11T17:31:10.550Z,3.77
2018-11-11T17:33:38.187Z,3.57
2018-11-11T17:36:05.804Z,1.90
2018-11-11T17:38:33.388Z,3.23
2018-11-11T17:41:01.044Z,3.53
2018-11-11T17:43:28.517Z,3.77
2018-11-11T17:45:56.028Z,2.60
2018-11-11T17:48:23.607Z,2.73
2018-11-11T17:50:51.149Z,2.30
2018-11-11T17:53:18.701Z,2.77
2018-11-11T17:55:46.323Z,3.00
2018-11-11T17:58:13.696Z,4.40
2018-11-11T18:00:41.215Z,1.97
2018-11-11T18:03:08.843Z,2.57
2018-11-11T18:05:36.258Z,2.70
2018-11-11T18:08:04.052Z,2.67
2018-11-11T18:10:31.756Z,3.47
2018-11-11T18:12:59.181Z,4.40
2018-11-11T18:15:29.095Z,4.07
2018-11-11T18:17:56.774Z,5.77
2018-11-11T18:20:25.586Z,5.37
2018-11-11T18:22:54.180Z,5.73
2018-11-11T18:25:21.800Z,6.27
2018-11-11T18:27:49.319Z,4.43
2018-11-11T18:30:21.557Z,6.37
2018-11-11T18:32:49.127Z,4.77
2018-11-11T18:35:17.277Z,3.53
2018-11-11T18:37:44.915Z,5.27
2018-11-11T18:40:13.702Z,5.93
2018-11-11T18:42:41.144Z,6.40
2018-11-11T18:45:11.306Z,5.17
2018-11-11T18:47:39.120Z,7.37
2018-11-11T18:50:10.882Z,5.57
2018-11-11T18:52:38.561Z,4.27
2018-11-11T18:55:06.646Z,6.73
2018-11-11T18:57:34.132Z,4.80
2018-11-11T19:00:01.726Z,3.37
2018-11-11T19:02:29.416Z,5.67
2018-11-11T19:04:56.886Z,3.60
2018-11-11T19:07:24.782Z,7.07
2018-11-11T19:09:52.875Z,5.03
2018-11-11T19:12:20.380Z,4.67
2018-11-11T19:14:48.075Z,3.70
2018-11-11T19:17:15.685Z,4.37
2018-11-11T19:19:43.215Z,3.53
2018-11-11T19:22:10.797Z,4.47
2018-11-11T19:24:38.480Z,4.27
2018-11-11T19:27:06.016Z,3.53
2018-11-11T19:29:33.535Z,5.10
2018-11-11T19:32:01.328Z,4.53
2018-11-11T19:34:28.809Z,4.90
2018-11-11T19:36:56.382Z,2.97
2018-11-11T19:39:24.105Z,3.67
2018-11-11T19:41:51.592Z,4.07
2018-11-11T19:44:19.408Z,4.70
2018-11-11T19:46:46.986Z,3.80
2018-11-11T19:49:14.506Z,4.17
2018-11-11T19:51:42.203Z,4.77
2018-11-11T19:54:09.717Z,6.40
2018-11-11T19:56:37.261Z,3.97
2018-11-11T19:59:04.755Z,4.47
2018-11-11T20:01:32.449Z,4.47
2018-11-11T20:03:59.970Z,4.30
2018-11-11T20:06:27.526Z,4.93
2018-11-11T20:08:55.148Z,5.43
2018-11-11T20:11:22.620Z,5.77
2018-11-11T20:13:50.460Z,5.23
2018-11-11T20:16:17.982Z,5.73
2018-11-11T20:18:45.529Z,6.80
2018-11-11T20:21:13.242Z,6.03
2018-11-11T20:23:40.871Z,6.73
2018-11-11T20:26:08.403Z,6.13
2018-11-11T20:28:36.130Z,7.47
2018-11-11T20:31:03.933Z,7.77
2018-11-11T20:33:31.394Z,7.83
2018-11-11T20:35:59.156Z,6.83
2018-11-11T20:38:26.891Z,8.97
2018-11-11T20:40:54.374Z,9.27
2018-11-11T20:43:22.076Z,7.50
2018-11-11T20:45:49.834Z,10.10
2018-11-11T20:48:17.306Z,8.07
2018-11-11T20:50:44.924Z,9.67
2018-11-11T20:53:12.567Z,10.40
2018-11-11T20:55:40.025Z,10.23
2018-11-11T20:58:07.810Z,11.30
2018-11-11T21:00:36.641Z,12.00
2018-11-11T21:03:04.615Z,10.13
2018-11-11T21:05:32.163Z,11.67
2018-11-11T21:08:00.679Z,12.67
2018-11-11T21:10:28.787Z,11.60
2018-11-11T21:12:56.764Z,11.27
2018-11-11T21:15:25.610Z,10.00
2018-11-11T21:17:53.078Z,14.70
2018-11-11T21:20:22.040Z,10.83
2018-11-11T21:22:49.624Z,8.00
2018-11-11T21:25:17.123Z,10.70
2018-11-11T21:27:45.843Z,13.57
2018-11-11T21:30:14.853Z,10.80
2018-11-11T21:32:42.429Z,10.83
2018-11-11T21:35:10.689Z,11.93
2018-11-11T21:37:38.440Z,9.43
2018-11-11T21:40:08.237Z,8.90
2018-11-11T21:42:35.898Z,10.07
2018-11-11T21:45:03.936Z,8.43
2018-11-11T21:47:31.390Z,12.27
2018-11-11T21:49:58.997Z,10.17
2018-11-11T21:52:26.626Z,9.53
2018-11-11T21:54:54.133Z,10.00
2018-11-11T21:57:21.835Z,6.53
2018-11-11T21:59:49.451Z,9.33
2018-11-11T22:02:16.889Z,8.23
2018-11-11T22:04:44.594Z,11.07
2018-11-11T22:07:12.350Z,8.40
2018-11-11T22:09:39.902Z,8.13
2018-11-11T22:12:07.636Z,7.97
2018-11-11T22:14:35.401Z,11.30
2018-11-11T22:17:02.994Z,8.43
2018-11-11T22:19:30.799Z,8.27
2018-11-11T22:21:58.525Z,7.77
2018-11-11T22:24:25.988Z,8.47
2018-11-11T22:26:53.500Z,9.63
2018-11-11T22:29:21.221Z,10.47
2018-11-11T22:31:48.681Z,8.10
2018-11-11T22:34:16.267Z,10.00
2018-11-11T22:36:44.018Z,6.80
2018-11-11T22:39:12.100Z,8.83
2018-11-11T22:41:40.074Z,10.33
2018-11-11T22:44:08.769Z,8.90
2018-11-11T22:46:36.565Z,9.00
2018-11-11T22:49:04.549Z,8.60
2018-11-11T22:51:32.135Z,10.67
2018-11-11T22:53:59.699Z,9.20
2018-11-11T22:56:27.321Z,7.17
2018-11-11T22:58:55.089Z,8.60
2018-11-11T23:01:22.664Z,9.73
2018-11-11T23:03:50.673Z,10.03
2018-11-11T23:06:18.641Z,8.10
2018-11-11T23:08:46.468Z,11.93
2018-11-11T23:11:14.486Z,7.97
2018-11-11T23:13:42.361Z,7.50
2018-11-11T23:16:09.895Z,8.10
2018-11-11T23:18:38.394Z,8.93
2018-11-11T23:21:06.480Z,9.27
2018-11-11T23:23:34.029Z,8.90
2018-11-11T23:26:02.037Z,12.43
2018-11-11T23:28:29.838Z,10.63
2018-11-11T23:30:57.290Z,8.23
2018-11-11T23:33:25.297Z,9.77
2018-11-11T23:35:52.999Z,9.00
2018-11-11T23:38:20.470Z,9.90
2018-11-11T23:40:48.116Z,9.27
2018-11-11T23:43:16.053Z,7.43
2018-11-11T23:45:43.584Z,10.40
2018-11-11T23:48:11.577Z,8.63
2018-11-11T23:50:39.215Z,6.07
2018-11-11T23:53:06.619Z,8.80
2018-11-11T23:55:34.283Z,7.57
2018-11-11T23:58:01.824Z,8.00
